sensor_id;sensor_type;location;lat;lon;timestamp;P1;durP1;ratioP1;P2;durP2;ratioP2
69220;SDS011;56331;51.992;20.910;2022-08-11T00:05:04;5.05;;;2.98;;
69220;SDS011;56331;51.992;20.910;2022-08-11T00:07:34;4.37;;;2.85;;
69220;SDS011;56331;51.992;20.910;2022-08-11T00:10:02;5.20;;;3.27;;
69220;SDS011;56331;51.992;20.910;2022-08-11T00:12:31;3.65;;;2.60;;
69220;SDS011;56331;51.992;20.910;2022-08-11T00:14:58;3.90;;;2.83;;
69220;SDS011;56331;51.992;20.910;2022-08-11T00:17:27;4.83;;;3.10;;
69220;SDS011;56331;51.992;20.910;2022-08-11T00:20:00;4.03;;;2.80;;
69220;SDS011;56331;51.992;20.910;2022-08-11T00:22:29;4.12;;;2.80;;
69220;SDS011;56331;51.992;20.910;2022-08-11T00:24:56;4.40;;;2.80;;
69220;SDS011;56331;51.992;20.910;2022-08-11T00:30:02;3.83;;;2.80;;
69220;SDS011;56331;51.992;20.910;2022-08-11T00:32:30;3.75;;;3.02;;
69220;SDS011;56331;51.992;20.910;2022-08-11T00:34:57;3.98;;;2.72;;
69220;SDS011;56331;51.992;20.910;2022-08-11T00:37:26;4.80;;;3.15;;
69220;SDS011;56331;51.992;20.910;2022-08-11T00:39:54;4.12;;;2.72;;
69220;SDS011;56331;51.992;20.910;2022-08-11T00:45:20;3.55;;;2.40;;
69220;SDS011;56331;51.992;20.910;2022-08-11T00:48:06;3.60;;;2.60;;
69220;SDS011;56331;51.992;20.910;2022-08-11T00:50:48;2.98;;;2.45;;
69220;SDS011;56331;51.992;20.910;2022-08-11T01:13:54;4.05;;;2.70;;
69220;SDS011;56331;51.992;20.910;2022-08-11T01:19:21;3.60;;;2.60;;
69220;SDS011;56331;51.992;20.910;2022-08-11T01:36:38;3.25;;;2.77;;
69220;SDS011;56331;51.992;20.910;2022-08-11T01:48:04;4.08;;;2.50;;
69220;SDS011;56331;51.992;20.910;2022-08-11T01:51:01;3.67;;;2.42;;
69220;SDS011;56331;51.992;20.910;2022-08-11T01:59:19;3.98;;;2.50;;
69220;SDS011;56331;51.992;20.910;2022-08-11T02:04:40;2.62;;;1.98;;
69220;SDS011;56331;51.992;20.910;2022-08-11T02:07:32;3.00;;;2.45;;
69220;SDS011;56331;51.992;20.910;2022-08-11T02:13:33;2.47;;;2.10;;
69220;SDS011;56331;51.992;20.910;2022-08-11T02:25:57;3.90;;;2.15;;
69220;SDS011;56331;51.992;20.910;2022-08-11T02:34:46;2.72;;;1.90;;
69220;SDS011;56331;51.992;20.910;2022-08-11T02:37:23;2.85;;;2.10;;
69220;SDS011;56331;51.992;20.910;2022-08-11T02:43:24;2.72;;;2.20;;
69220;SDS011;56331;51.992;20.910;2022-08-11T02:46:19;3.15;;;2.50;;
69220;SDS011;56331;51.992;20.910;2022-08-11T02:52:02;3.33;;;2.05;;
69220;SDS011;56331;51.992;20.910;2022-08-11T02:54:37;2.35;;;1.87;;
69220;SDS011;56331;51.992;20.910;2022-08-11T03:00:08;2.30;;;1.90;;
69220;SDS011;56331;51.992;20.910;2022-08-11T03:11:11;3.17;;;2.08;;
69220;SDS011;56331;51.992;20.910;2022-08-11T03:14:13;2.83;;;2.10;;
69220;SDS011;56331;51.992;20.910;2022-08-11T03:22:48;2.90;;;2.00;;
69220;SDS011;56331;51.992;20.910;2022-08-11T03:31:58;2.70;;;1.80;;
69220;SDS011;56331;51.992;20.910;2022-08-11T03:34:29;1.90;;;1.60;;
69220;SDS011;56331;51.992;20.910;2022-08-11T03:42:53;2.17;;;1.65;;
69220;SDS011;56331;51.992;20.910;2022-08-11T03:45:34;2.37;;;1.92;;
69220;SDS011;56331;51.992;20.910;2022-08-11T03:48:06;2.27;;;1.85;;
69220;SDS011;56331;51.992;20.910;2022-08-11T03:59:42;2.25;;;1.70;;
69220;SDS011;56331;51.992;20.910;2022-08-11T04:10:51;2.52;;;1.80;;
69220;SDS011;56331;51.992;20.910;2022-08-11T04:16:43;2.60;;;1.82;;
69220;SDS011;56331;51.992;20.910;2022-08-11T04:22:10;1.92;;;1.72;;
69220;SDS011;56331;51.992;20.910;2022-08-11T04:30:28;3.40;;;1.60;;
69220;SDS011;56331;51.992;20.910;2022-08-11T04:47:43;2.25;;;1.62;;
69220;SDS011;56331;51.992;20.910;2022-08-11T05:00:00;1.62;;;1.42;;
69220;SDS011;56331;51.992;20.910;2022-08-11T05:02:54;3.12;;;1.52;;
69220;SDS011;56331;51.992;20.910;2022-08-11T05:05:30;2.40;;;1.52;;
69220;SDS011;56331;51.992;20.910;2022-08-11T05:13:31;4.80;;;1.75;;
69220;SDS011;56331;51.992;20.910;2022-08-11T05:19:14;3.45;;;1.90;;
69220;SDS011;56331;51.992;20.910;2022-08-11T05:22:01;1.98;;;1.60;;
69220;SDS011;56331;51.992;20.910;2022-08-11T05:24:49;3.92;;;1.87;;
69220;SDS011;56331;51.992;20.910;2022-08-11T05:27:59;2.05;;;1.60;;
69220;SDS011;56331;51.992;20.910;2022-08-11T05:30:43;1.65;;;1.50;;
69220;SDS011;56331;51.992;20.910;2022-08-11T05:42:15;2.70;;;1.80;;
69220;SDS011;56331;51.992;20.910;2022-08-11T05:45:08;3.15;;;1.60;;
69220;SDS011;56331;51.992;20.910;2022-08-11T05:47:59;2.25;;;1.70;;
69220;SDS011;56331;51.992;20.910;2022-08-11T05:50:50;1.98;;;1.60;;
69220;SDS011;56331;51.992;20.910;2022-08-11T05:53:42;2.70;;;1.62;;
69220;SDS011;56331;51.992;20.910;2022-08-11T05:56:31;2.55;;;1.65;;
69220;SDS011;56331;51.992;20.910;2022-08-11T05:58:59;1.65;;;1.35;;
69220;SDS011;56331;51.992;20.910;2022-08-11T06:01:28;2.52;;;1.60;;
69220;SDS011;56331;51.992;20.910;2022-08-11T06:03:59;3.05;;;1.52;;
69220;SDS011;56331;51.992;20.910;2022-08-11T06:09:48;2.98;;;1.65;;
69220;SDS011;56331;51.992;20.910;2022-08-11T06:14:55;2.87;;;1.70;;
69220;SDS011;56331;51.992;20.910;2022-08-11T06:17:26;2.40;;;1.47;;
69220;SDS011;56331;51.992;20.910;2022-08-11T06:19:59;3.58;;;1.47;;
69220;SDS011;56331;51.992;20.910;2022-08-11T06:22:28;2.12;;;1.50;;
69220;SDS011;56331;51.992;20.910;2022-08-11T06:27:28;2.02;;;1.57;;
69220;SDS011;56331;51.992;20.910;2022-08-11T06:29:56;2.22;;;1.40;;
69220;SDS011;56331;51.992;20.910;2022-08-11T06:32:27;3.45;;;1.40;;
69220;SDS011;56331;51.992;20.910;2022-08-11T06:35:03;3.30;;;1.72;;
69220;SDS011;56331;51.992;20.910;2022-08-11T06:37:39;2.60;;;1.40;;
69220;SDS011;56331;51.992;20.910;2022-08-11T06:40:10;3.35;;;1.50;;
69220;SDS011;56331;51.992;20.910;2022-08-11T06:48:14;2.87;;;1.20;;
69220;SDS011;56331;51.992;20.910;2022-08-11T06:50:49;2.83;;;1.60;;
69220;SDS011;56331;51.992;20.910;2022-08-11T06:53:35;2.20;;;1.50;;
69220;SDS011;56331;51.992;20.910;2022-08-11T06:56:24;2.15;;;1.30;;
69220;SDS011;56331;51.992;20.910;2022-08-11T06:59:12;1.85;;;1.37;;
69220;SDS011;56331;51.992;20.910;2022-08-11T07:02:05;2.23;;;1.33;;
69220;SDS011;56331;51.992;20.910;2022-08-11T07:04:49;4.67;;;1.30;;
69220;SDS011;56331;51.992;20.910;2022-08-11T07:13:43;2.05;;;1.17;;
69220;SDS011;56331;51.992;20.910;2022-08-11T07:16:30;6.97;;;1.72;;
69220;SDS011;56331;51.992;20.910;2022-08-11T07:19:01;11.93;;;2.22;;
69220;SDS011;56331;51.992;20.910;2022-08-11T07:21:49;5.53;;;1.75;;
69220;SDS011;56331;51.992;20.910;2022-08-11T07:24:38;2.45;;;1.40;;
69220;SDS011;56331;51.992;20.910;2022-08-11T07:30:17;4.72;;;1.17;;
69220;SDS011;56331;51.992;20.910;2022-08-11T07:35:17;5.10;;;1.37;;
69220;SDS011;56331;51.992;20.910;2022-08-11T07:40:53;3.20;;;1.40;;
69220;SDS011;56331;51.992;20.910;2022-08-11T07:43:23;2.47;;;1.37;;
69220;SDS011;56331;51.992;20.910;2022-08-11T07:45:50;4.28;;;1.42;;
69220;SDS011;56331;51.992;20.910;2022-08-11T07:48:36;4.22;;;1.55;;
69220;SDS011;56331;51.992;20.910;2022-08-11T07:51:24;4.80;;;1.70;;
69220;SDS011;56331;51.992;20.910;2022-08-11T07:54:10;6.00;;;1.60;;
69220;SDS011;56331;51.992;20.910;2022-08-11T07:56:41;6.33;;;1.60;;
69220;SDS011;56331;51.992;20.910;2022-08-11T07:59:09;2.80;;;1.47;;
69220;SDS011;56331;51.992;20.910;2022-08-11T08:01:57;3.80;;;1.37;;
69220;SDS011;56331;51.992;20.910;2022-08-11T08:04:44;5.55;;;1.50;;
69220;SDS011;56331;51.992;20.910;2022-08-11T08:07:31;3.67;;;1.40;;
69220;SDS011;56331;51.992;20.910;2022-08-11T08:10:16;5.20;;;1.45;;
69220;SDS011;56331;51.992;20.910;2022-08-11T08:13:03;6.92;;;1.72;;
69220;SDS011;56331;51.992;20.910;2022-08-11T08:15:50;4.28;;;1.22;;
69220;SDS011;56331;51.992;20.910;2022-08-11T08:18:36;3.15;;;1.37;;
69220;SDS011;56331;51.992;20.910;2022-08-11T08:21:05;8.88;;;1.90;;
69220;SDS011;56331;51.992;20.910;2022-08-11T08:23:41;6.45;;;1.67;;
69220;SDS011;56331;51.992;20.910;2022-08-11T08:26:10;8.13;;;1.67;;
69220;SDS011;56331;51.992;20.910;2022-08-11T08:29:00;6.70;;;2.15;;
69220;SDS011;56331;51.992;20.910;2022-08-11T08:31:47;5.55;;;1.90;;
69220;SDS011;56331;51.992;20.910;2022-08-11T08:34:15;3.15;;;1.30;;
69220;SDS011;56331;51.992;20.910;2022-08-11T08:39:13;6.83;;;1.90;;
69220;SDS011;56331;51.992;20.910;2022-08-11T08:41:41;5.70;;;1.57;;
69220;SDS011;56331;51.992;20.910;2022-08-11T08:44:10;5.50;;;1.60;;
69220;SDS011;56331;51.992;20.910;2022-08-11T08:46:41;3.30;;;1.47;;
69220;SDS011;56331;51.992;20.910;2022-08-11T08:49:12;2.40;;;1.50;;
69220;SDS011;56331;51.992;20.910;2022-08-11T08:51:42;3.05;;;1.50;;
69220;SDS011;56331;51.992;20.910;2022-08-11T08:56:40;2.95;;;1.30;;
69220;SDS011;56331;51.992;20.910;2022-08-11T08:59:10;4.55;;;1.47;;
69220;SDS011;56331;51.992;20.910;2022-08-11T09:01:42;3.42;;;1.25;;
69220;SDS011;56331;51.992;20.910;2022-08-11T09:04:26;4.08;;;1.30;;
69220;SDS011;56331;51.992;20.910;2022-08-11T09:06:55;6.37;;;1.80;;
69220;SDS011;56331;51.992;20.910;2022-08-11T09:09:24;3.92;;;1.27;;
69220;SDS011;56331;51.992;20.910;2022-08-11T09:11:52;3.85;;;1.10;;
69220;SDS011;56331;51.992;20.910;2022-08-11T09:16:57;4.10;;;1.35;;
69220;SDS011;56331;51.992;20.910;2022-08-11T09:19:24;2.35;;;1.20;;
69220;SDS011;56331;51.992;20.910;2022-08-11T09:21:51;2.37;;;1.25;;
69220;SDS011;56331;51.992;20.910;2022-08-11T09:24:37;2.02;;;1.20;;
69220;SDS011;56331;51.992;20.910;2022-08-11T09:27:23;1.32;;;1.00;;
69220;SDS011;56331;51.992;20.910;2022-08-11T09:29:53;3.00;;;0.90;;
69220;SDS011;56331;51.992;20.910;2022-08-11T09:32:21;3.27;;;1.00;;
69220;SDS011;56331;51.992;20.910;2022-08-11T09:34:52;3.05;;;0.85;;
69220;SDS011;56331;51.992;20.910;2022-08-11T09:37:20;1.65;;;1.00;;
69220;SDS011;56331;51.992;20.910;2022-08-11T09:40:06;1.92;;;1.17;;
69220;SDS011;56331;51.992;20.910;2022-08-11T09:42:55;1.55;;;0.90;;
69220;SDS011;56331;51.992;20.910;2022-08-11T09:45:44;1.72;;;1.05;;
69220;SDS011;56331;51.992;20.910;2022-08-11T09:50:49;1.65;;;0.90;;
69220;SDS011;56331;51.992;20.910;2022-08-11T09:53:19;1.75;;;0.82;;
69220;SDS011;56331;51.992;20.910;2022-08-11T09:55:47;1.87;;;0.90;;
69220;SDS011;56331;51.992;20.910;2022-08-11T09:58:15;3.50;;;0.80;;
69220;SDS011;56331;51.992;20.910;2022-08-11T10:00:43;1.27;;;1.12;;
69220;SDS011;56331;51.992;20.910;2022-08-11T10:03:14;3.62;;;1.05;;
69220;SDS011;56331;51.992;20.910;2022-08-11T10:05:50;2.65;;;0.90;;
69220;SDS011;56331;51.992;20.910;2022-08-11T10:08:46;5.62;;;1.12;;
69220;SDS011;56331;51.992;20.910;2022-08-11T10:11:17;3.25;;;1.10;;
69220;SDS011;56331;51.992;20.910;2022-08-11T10:13:46;4.25;;;1.00;;
69220;SDS011;56331;51.992;20.910;2022-08-11T10:16:36;2.70;;;1.10;;
69220;SDS011;56331;51.992;20.910;2022-08-11T10:19:05;1.77;;;0.93;;
69220;SDS011;56331;51.992;20.910;2022-08-11T10:21:43;2.35;;;0.88;;
69220;SDS011;56331;51.992;20.910;2022-08-11T10:24:13;2.42;;;0.90;;
69220;SDS011;56331;51.992;20.910;2022-08-11T10:26:58;2.92;;;0.90;;
69220;SDS011;56331;51.992;20.910;2022-08-11T10:29:31;1.57;;;1.07;;
69220;SDS011;56331;51.992;20.910;2022-08-11T10:35:07;2.00;;;1.10;;
69220;SDS011;56331;51.992;20.910;2022-08-11T10:37:37;1.72;;;1.10;;
69220;SDS011;56331;51.992;20.910;2022-08-11T10:40:05;2.10;;;0.80;;
69220;SDS011;56331;51.992;20.910;2022-08-11T10:42:34;3.60;;;0.95;;
69220;SDS011;56331;51.992;20.910;2022-08-11T10:45:20;1.25;;;0.90;;
69220;SDS011;56331;51.992;20.910;2022-08-11T10:48:06;2.15;;;0.80;;
69220;SDS011;56331;51.992;20.910;2022-08-11T10:50:35;1.90;;;0.80;;
69220;SDS011;56331;51.992;20.910;2022-08-11T10:53:22;1.27;;;0.93;;
69220;SDS011;56331;51.992;20.910;2022-08-11T10:56:08;1.90;;;0.80;;
69220;SDS011;56331;51.992;20.910;2022-08-11T10:58:53;2.87;;;1.20;;
69220;SDS011;56331;51.992;20.910;2022-08-11T11:01:23;0.72;;;0.68;;
69220;SDS011;56331;51.992;20.910;2022-08-11T11:03:54;3.08;;;1.02;;
69220;SDS011;56331;51.992;20.910;2022-08-11T11:06:28;1.42;;;0.82;;
69220;SDS011;56331;51.992;20.910;2022-08-11T11:09:15;2.62;;;1.07;;
69220;SDS011;56331;51.992;20.910;2022-08-11T11:11:56;2.65;;;1.00;;
69220;SDS011;56331;51.992;20.910;2022-08-11T11:14:44;3.62;;;1.22;;
69220;SDS011;56331;51.992;20.910;2022-08-11T11:17:42;1.27;;;1.00;;
69220;SDS011;56331;51.992;20.910;2022-08-11T11:22:59;1.15;;;0.70;;
69220;SDS011;56331;51.992;20.910;2022-08-11T11:30:41;1.47;;;0.90;;
69220;SDS011;56331;51.992;20.910;2022-08-11T11:38:45;2.80;;;0.90;;
69220;SDS011;56331;51.992;20.910;2022-08-11T11:41:13;3.85;;;0.90;;
69220;SDS011;56331;51.992;20.910;2022-08-11T11:46:37;2.30;;;0.90;;
69220;SDS011;56331;51.992;20.910;2022-08-11T11:49:04;2.12;;;0.85;;
69220;SDS011;56331;51.992;20.910;2022-08-11T11:51:35;4.13;;;0.90;;
69220;SDS011;56331;51.992;20.910;2022-08-11T11:54:04;2.12;;;0.95;;
69220;SDS011;56331;51.992;20.910;2022-08-11T11:56:32;19.70;;;6.55;;
69220;SDS011;56331;51.992;20.910;2022-08-11T11:59:01;18.03;;;8.17;;
69220;SDS011;56331;51.992;20.910;2022-08-11T12:01:46;25.72;;;11.00;;
69220;SDS011;56331;51.992;20.910;2022-08-11T12:04:15;24.27;;;10.23;;
69220;SDS011;56331;51.992;20.910;2022-08-11T12:06:45;21.87;;;9.33;;
69220;SDS011;56331;51.992;20.910;2022-08-11T12:09:12;23.77;;;9.00;;
69220;SDS011;56331;51.992;20.910;2022-08-11T12:11:42;25.75;;;8.53;;
69220;SDS011;56331;51.992;20.910;2022-08-11T12:14:27;14.10;;;6.30;;
69220;SDS011;56331;51.992;20.910;2022-08-11T12:16:55;14.80;;;5.30;;
69220;SDS011;56331;51.992;20.910;2022-08-11T12:19:24;11.68;;;4.67;;
69220;SDS011;56331;51.992;20.910;2022-08-11T12:21:55;9.25;;;4.90;;
69220;SDS011;56331;51.992;20.910;2022-08-11T12:24:41;11.90;;;4.53;;
69220;SDS011;56331;51.992;20.910;2022-08-11T12:27:26;9.40;;;4.00;;
69220;SDS011;56331;51.992;20.910;2022-08-11T12:29:56;10.48;;;3.58;;
69220;SDS011;56331;51.992;20.910;2022-08-11T12:32:37;12.60;;;4.67;;
69220;SDS011;56331;51.992;20.910;2022-08-11T12:35:06;12.40;;;3.40;;
69220;SDS011;56331;51.992;20.910;2022-08-11T12:40:10;10.93;;;3.47;;
69220;SDS011;56331;51.992;20.910;2022-08-11T12:42:58;8.75;;;3.10;;
69220;SDS011;56331;51.992;20.910;2022-08-11T12:45:46;8.58;;;2.92;;
69220;SDS011;56331;51.992;20.910;2022-08-11T12:48:19;9.83;;;3.05;;
69220;SDS011;56331;51.992;20.910;2022-08-11T12:51:10;9.48;;;2.90;;
69220;SDS011;56331;51.992;20.910;2022-08-11T12:53:58;5.95;;;2.52;;
69220;SDS011;56331;51.992;20.910;2022-08-11T12:56:31;6.53;;;2.92;;
69220;SDS011;56331;51.992;20.910;2022-08-11T12:59:17;7.42;;;3.42;;
69220;SDS011;56331;51.992;20.910;2022-08-11T13:02:05;5.08;;;2.17;;
69220;SDS011;56331;51.992;20.910;2022-08-11T13:04:52;6.37;;;2.08;;
69220;SDS011;56331;51.992;20.910;2022-08-11T13:07:21;7.12;;;2.50;;
69220;SDS011;56331;51.992;20.910;2022-08-11T13:09:52;8.00;;;2.75;;
69220;SDS011;56331;51.992;20.910;2022-08-11T13:12:21;16.75;;;2.60;;
69220;SDS011;56331;51.992;20.910;2022-08-11T13:15:10;7.00;;;2.35;;
69220;SDS011;56331;51.992;20.910;2022-08-11T13:17:39;4.78;;;2.20;;
69220;SDS011;56331;51.992;20.910;2022-08-11T13:20:10;4.72;;;1.95;;
69220;SDS011;56331;51.992;20.910;2022-08-11T13:22:38;4.85;;;1.70;;
69220;SDS011;56331;51.992;20.910;2022-08-11T13:25:09;4.75;;;1.87;;
69220;SDS011;56331;51.992;20.910;2022-08-11T13:27:35;6.53;;;1.85;;
69220;SDS011;56331;51.992;20.910;2022-08-11T13:30:03;6.60;;;1.57;;
69220;SDS011;56331;51.992;20.910;2022-08-11T13:32:49;2.62;;;1.32;;
69220;SDS011;56331;51.992;20.910;2022-08-11T13:35:18;3.02;;;0.78;;
69220;SDS011;56331;51.992;20.910;2022-08-11T13:40:15;1.55;;;0.85;;
69220;SDS011;56331;51.992;20.910;2022-08-11T13:42:44;3.20;;;0.98;;
69220;SDS011;56331;51.992;20.910;2022-08-11T13:45:13;1.00;;;0.60;;
69220;SDS011;56331;51.992;20.910;2022-08-11T13:47:41;1.60;;;0.70;;
69220;SDS011;56331;51.992;20.910;2022-08-11T13:50:09;3.30;;;0.80;;
69220;SDS011;56331;51.992;20.910;2022-08-11T13:52:38;2.45;;;0.65;;
69220;SDS011;56331;51.992;20.910;2022-08-11T13:55:07;3.95;;;0.90;;
69220;SDS011;56331;51.992;20.910;2022-08-11T13:57:35;3.62;;;0.70;;
69220;SDS011;56331;51.992;20.910;2022-08-11T14:00:04;1.90;;;1.05;;
69220;SDS011;56331;51.992;20.910;2022-08-11T14:02:37;1.90;;;0.75;;
69220;SDS011;56331;51.992;20.910;2022-08-11T14:10:17;1.75;;;0.60;;
69220;SDS011;56331;51.992;20.910;2022-08-11T14:12:49;1.27;;;0.57;;
69220;SDS011;56331;51.992;20.910;2022-08-11T14:15:42;1.72;;;0.68;;
69220;SDS011;56331;51.992;20.910;2022-08-11T14:20:39;3.95;;;0.50;;
69220;SDS011;56331;51.992;20.910;2022-08-11T14:23:41;1.42;;;0.62;;
69220;SDS011;56331;51.992;20.910;2022-08-11T14:26:10;1.60;;;0.40;;
69220;SDS011;56331;51.992;20.910;2022-08-11T14:28:48;2.12;;;0.70;;
69220;SDS011;56331;51.992;20.910;2022-08-11T14:31:21;1.62;;;0.70;;
69220;SDS011;56331;51.992;20.910;2022-08-11T14:33:50;0.78;;;0.40;;
69220;SDS011;56331;51.992;20.910;2022-08-11T14:36:22;2.35;;;0.50;;
69220;SDS011;56331;51.992;20.910;2022-08-11T14:38:52;0.75;;;0.45;;
69220;SDS011;56331;51.992;20.910;2022-08-11T14:41:20;2.20;;;0.70;;
69220;SDS011;56331;51.992;20.910;2022-08-11T14:44:07;0.88;;;0.60;;
69220;SDS011;56331;51.992;20.910;2022-08-11T14:46:55;1.12;;;0.55;;
69220;SDS011;56331;51.992;20.910;2022-08-11T14:49:36;1.45;;;0.50;;
69220;SDS011;56331;51.992;20.910;2022-08-11T14:52:06;2.05;;;0.55;;
69220;SDS011;56331;51.992;20.910;2022-08-11T14:54:36;0.90;;;0.50;;
69220;SDS011;56331;51.992;20.910;2022-08-11T14:57:22;0.88;;;0.45;;
69220;SDS011;56331;51.992;20.910;2022-08-11T14:59:52;1.27;;;0.60;;
69220;SDS011;56331;51.992;20.910;2022-08-11T15:02:21;1.67;;;0.60;;
69220;SDS011;56331;51.992;20.910;2022-08-11T15:05:09;2.27;;;0.80;;
69220;SDS011;56331;51.992;20.910;2022-08-11T15:07:38;2.02;;;0.60;;
69220;SDS011;56331;51.992;20.910;2022-08-11T15:10:07;4.55;;;0.70;;
69220;SDS011;56331;51.992;20.910;2022-08-11T15:12:38;1.87;;;0.50;;
69220;SDS011;56331;51.992;20.910;2022-08-11T15:15:09;1.65;;;0.62;;
69220;SDS011;56331;51.992;20.910;2022-08-11T15:17:58;2.87;;;0.73;;
69220;SDS011;56331;51.992;20.910;2022-08-11T15:20:27;1.32;;;0.50;;
69220;SDS011;56331;51.992;20.910;2022-08-11T15:23:13;2.08;;;0.50;;
69220;SDS011;56331;51.992;20.910;2022-08-11T15:26:03;1.77;;;0.60;;
69220;SDS011;56331;51.992;20.910;2022-08-11T15:28:33;1.72;;;0.70;;
69220;SDS011;56331;51.992;20.910;2022-08-11T15:31:21;0.60;;;0.50;;
69220;SDS011;56331;51.992;20.910;2022-08-11T15:33:56;2.20;;;0.65;;
69220;SDS011;56331;51.992;20.910;2022-08-11T15:36:44;1.40;;;0.82;;
69220;SDS011;56331;51.992;20.910;2022-08-11T15:39:37;0.75;;;0.55;;
69220;SDS011;56331;51.992;20.910;2022-08-11T15:42:18;2.45;;;0.70;;
69220;SDS011;56331;51.992;20.910;2022-08-11T15:45:04;2.77;;;0.60;;
69220;SDS011;56331;51.992;20.910;2022-08-11T15:47:56;1.00;;;0.80;;
69220;SDS011;56331;51.992;20.910;2022-08-11T15:50:26;0.55;;;0.50;;
69220;SDS011;56331;51.992;20.910;2022-08-11T15:52:58;4.33;;;0.70;;
69220;SDS011;56331;51.992;20.910;2022-08-11T15:55:28;1.92;;;0.90;;
69220;SDS011;56331;51.992;20.910;2022-08-11T15:57:58;1.20;;;0.65;;
69220;SDS011;56331;51.992;20.910;2022-08-11T16:00:46;0.98;;;0.60;;
69220;SDS011;56331;51.992;20.910;2022-08-11T16:06:25;1.65;;;0.90;;
69220;SDS011;56331;51.992;20.910;2022-08-11T16:08:53;3.60;;;1.05;;
69220;SDS011;56331;51.992;20.910;2022-08-11T16:11:24;2.12;;;0.70;;
69220;SDS011;56331;51.992;20.910;2022-08-11T16:13:52;1.35;;;0.85;;
69220;SDS011;56331;51.992;20.910;2022-08-11T16:16:38;2.37;;;1.02;;
69220;SDS011;56331;51.992;20.910;2022-08-11T16:19:06;1.30;;;0.88;;
69220;SDS011;56331;51.992;20.910;2022-08-11T16:21:35;2.72;;;0.80;;
69220;SDS011;56331;51.992;20.910;2022-08-11T16:24:05;1.15;;;0.85;;
69220;SDS011;56331;51.992;20.910;2022-08-11T16:26:34;0.93;;;0.80;;
69220;SDS011;56331;51.992;20.910;2022-08-11T16:29:03;1.47;;;0.80;;
69220;SDS011;56331;51.992;20.910;2022-08-11T16:31:31;1.65;;;0.90;;
69220;SDS011;56331;51.992;20.910;2022-08-11T16:34:00;3.02;;;1.02;;
69220;SDS011;56331;51.992;20.910;2022-08-11T16:36:29;3.80;;;1.30;;
69220;SDS011;56331;51.992;20.910;2022-08-11T16:39:15;3.17;;;1.12;;
69220;SDS011;56331;51.992;20.910;2022-08-11T16:41:43;2.67;;;1.02;;
69220;SDS011;56331;51.992;20.910;2022-08-11T16:44:31;3.20;;;1.15;;
69220;SDS011;56331;51.992;20.910;2022-08-11T16:47:18;2.42;;;1.20;;
69220;SDS011;56331;51.992;20.910;2022-08-11T16:49:47;2.08;;;0.95;;
69220;SDS011;56331;51.992;20.910;2022-08-11T16:52:17;1.35;;;0.98;;
69220;SDS011;56331;51.992;20.910;2022-08-11T16:54:44;2.67;;;0.80;;
69220;SDS011;56331;51.992;20.910;2022-08-11T16:57:14;2.02;;;1.10;;
69220;SDS011;56331;51.992;20.910;2022-08-11T16:59:46;2.45;;;0.80;;
69220;SDS011;56331;51.992;20.910;2022-08-11T17:02:15;1.87;;;0.70;;
69220;SDS011;56331;51.992;20.910;2022-08-11T17:07:37;1.40;;;0.78;;
69220;SDS011;56331;51.992;20.910;2022-08-11T17:10:25;1.15;;;0.70;;
69220;SDS011;56331;51.992;20.910;2022-08-11T17:13:13;2.47;;;0.95;;
69220;SDS011;56331;51.992;20.910;2022-08-11T17:15:44;1.72;;;0.90;;
69220;SDS011;56331;51.992;20.910;2022-08-11T17:21:26;3.12;;;0.95;;
69220;SDS011;56331;51.992;20.910;2022-08-11T17:26:49;1.45;;;0.80;;
69220;SDS011;56331;51.992;20.910;2022-08-11T17:29:40;3.50;;;0.95;;
69220;SDS011;56331;51.992;20.910;2022-08-11T17:34:58;2.65;;;0.90;;
69220;SDS011;56331;51.992;20.910;2022-08-11T17:37:45;2.85;;;0.90;;
69220;SDS011;56331;51.992;20.910;2022-08-11T17:40:16;2.40;;;1.12;;
69220;SDS011;56331;51.992;20.910;2022-08-11T17:42:48;1.80;;;0.80;;
69220;SDS011;56331;51.992;20.910;2022-08-11T17:45:37;5.03;;;0.98;;
69220;SDS011;56331;51.992;20.910;2022-08-11T17:48:24;1.02;;;0.78;;
69220;SDS011;56331;51.992;20.910;2022-08-11T17:51:07;1.22;;;0.80;;
69220;SDS011;56331;51.992;20.910;2022-08-11T17:53:37;2.80;;;0.90;;
69220;SDS011;56331;51.992;20.910;2022-08-11T17:56:26;1.82;;;0.85;;
69220;SDS011;56331;51.992;20.910;2022-08-11T17:59:14;0.80;;;0.80;;
69220;SDS011;56331;51.992;20.910;2022-08-11T18:02:01;1.95;;;0.80;;
69220;SDS011;56331;51.992;20.910;2022-08-11T18:04:50;1.60;;;0.80;;
69220;SDS011;56331;51.992;20.910;2022-08-11T18:07:20;1.67;;;0.90;;
69220;SDS011;56331;51.992;20.910;2022-08-11T18:10:07;1.52;;;0.80;;
69220;SDS011;56331;51.992;20.910;2022-08-11T18:12:54;0.65;;;0.60;;
69220;SDS011;56331;51.992;20.910;2022-08-11T18:15:43;1.98;;;0.80;;
69220;SDS011;56331;51.992;20.910;2022-08-11T18:18:30;2.92;;;0.80;;
69220;SDS011;56331;51.992;20.910;2022-08-11T18:21:16;1.70;;;0.90;;
69220;SDS011;56331;51.992;20.910;2022-08-11T18:24:09;1.77;;;0.82;;
69220;SDS011;56331;51.992;20.910;2022-08-11T18:27:01;2.67;;;0.70;;
69220;SDS011;56331;51.992;20.910;2022-08-11T18:29:49;2.52;;;0.80;;
69220;SDS011;56331;51.992;20.910;2022-08-11T18:32:39;1.95;;;1.00;;
69220;SDS011;56331;51.992;20.910;2022-08-11T18:35:25;1.80;;;1.00;;
69220;SDS011;56331;51.992;20.910;2022-08-11T18:38:12;3.65;;;1.00;;
69220;SDS011;56331;51.992;20.910;2022-08-11T18:41:00;1.15;;;0.80;;
69220;SDS011;56331;51.992;20.910;2022-08-11T18:43:47;1.27;;;0.90;;
69220;SDS011;56331;51.992;20.910;2022-08-11T18:46:35;2.75;;;1.00;;
69220;SDS011;56331;51.992;20.910;2022-08-11T18:49:23;1.80;;;0.88;;
69220;SDS011;56331;51.992;20.910;2022-08-11T18:52:12;1.15;;;0.70;;
69220;SDS011;56331;51.992;20.910;2022-08-11T18:54:59;1.15;;;0.70;;
69220;SDS011;56331;51.992;20.910;2022-08-11T18:57:47;3.30;;;1.30;;
69220;SDS011;56331;51.992;20.910;2022-08-11T19:00:35;1.98;;;0.80;;
69220;SDS011;56331;51.992;20.910;2022-08-11T19:06:11;1.70;;;0.98;;
69220;SDS011;56331;51.992;20.910;2022-08-11T19:08:58;4.03;;;0.90;;
69220;SDS011;56331;51.992;20.910;2022-08-11T19:11:46;2.95;;;0.80;;
69220;SDS011;56331;51.992;20.910;2022-08-11T19:14:34;1.85;;;1.10;;
69220;SDS011;56331;51.992;20.910;2022-08-11T19:17:23;2.22;;;0.95;;
69220;SDS011;56331;51.992;20.910;2022-08-11T19:20:20;2.47;;;0.90;;
69220;SDS011;56331;51.992;20.910;2022-08-11T19:23:08;1.40;;;0.78;;
69220;SDS011;56331;51.992;20.910;2022-08-11T19:25:56;2.50;;;1.15;;
69220;SDS011;56331;51.992;20.910;2022-08-11T19:28:44;2.90;;;1.27;;
69220;SDS011;56331;51.992;20.910;2022-08-11T19:31:31;2.58;;;1.12;;
69220;SDS011;56331;51.992;20.910;2022-08-11T19:34:18;2.92;;;1.32;;
69220;SDS011;56331;51.992;20.910;2022-08-11T19:37:06;1.90;;;1.05;;
69220;SDS011;56331;51.992;20.910;2022-08-11T19:39:53;2.33;;;1.40;;
69220;SDS011;56331;51.992;20.910;2022-08-11T19:42:41;1.85;;;1.25;;
69220;SDS011;56331;51.992;20.910;2022-08-11T19:45:28;2.20;;;1.45;;
69220;SDS011;56331;51.992;20.910;2022-08-11T19:48:14;3.33;;;1.50;;
69220;SDS011;56331;51.992;20.910;2022-08-11T19:51:00;5.28;;;1.60;;
69220;SDS011;56331;51.992;20.910;2022-08-11T19:53:46;3.90;;;1.40;;
69220;SDS011;56331;51.992;20.910;2022-08-11T19:56:32;3.80;;;1.40;;
69220;SDS011;56331;51.992;20.910;2022-08-11T19:59:20;2.65;;;1.60;;
69220;SDS011;56331;51.992;20.910;2022-08-11T20:02:06;2.67;;;1.75;;
69220;SDS011;56331;51.992;20.910;2022-08-11T20:04:52;2.17;;;1.50;;
69220;SDS011;56331;51.992;20.910;2022-08-11T20:07:37;2.20;;;1.60;;
69220;SDS011;56331;51.992;20.910;2022-08-11T20:10:23;3.30;;;1.70;;
69220;SDS011;56331;51.992;20.910;2022-08-11T20:13:11;2.75;;;1.92;;
69220;SDS011;56331;51.992;20.910;2022-08-11T20:15:58;2.55;;;1.40;;